createdAt,value
2018-02-20T00:00:56.807Z,91.15
2018-02-20T00:01:56.724Z,91.62
2018-02-20T00:02:56.618Z,91.05
2018-02-20T00:03:56.543Z,91.34
2018-02-20T00:04:56.468Z,91.62
2018-02-20T00:05:56.397Z,91.34
2018-02-20T00:06:56.278Z,91.05
2018-02-20T00:07:56.214Z,91.34
2018-02-20T00:08:56.126Z,90.77
2018-02-20T00:09:56.059Z,91.62
2018-02-20T00:10:55.962Z,92.00
2018-02-20T00:11:56.025Z,91.43
2018-02-20T00:12:55.797Z,91.53
2018-02-20T00:13:55.719Z,92.10
2018-02-20T00:14:55.631Z,92.29
2018-02-20T00:15:55.567Z,92.66
2018-02-20T00:16:55.451Z,91.91
2018-02-20T00:17:55.385Z,91.34
2018-02-20T00:18:55.291Z,91.34
2018-02-20T00:19:55.288Z,91.53
2018-02-20T00:20:55.124Z,91.57
2018-02-20T00:21:55.054Z,91.38
2018-02-20T00:22:54.957Z,91.24
2018-02-20T00:23:54.886Z,91.38
2018-02-20T00:24:54.796Z,91.29
2018-02-20T00:25:54.745Z,91.24
2018-02-20T00:26:54.631Z,91.57
2018-02-20T00:27:54.548Z,91.38
2018-02-20T00:28:54.475Z,91.48
2018-02-20T00:29:54.384Z,91.57
2018-02-20T00:30:54.313Z,91.34
2018-02-20T00:31:54.228Z,91.91
2018-02-20T00:32:54.124Z,92.38
2018-02-20T00:33:54.058Z,92.76
2018-02-20T00:34:53.961Z,92.85
2018-02-20T00:35:53.905Z,92.57
2018-02-20T00:36:53.815Z,92.76
2018-02-20T00:37:53.721Z,92.76
2018-02-20T00:38:53.625Z,92.76
2018-02-20T00:39:53.558Z,92.76
2018-02-20T00:40:53.482Z,93.04
2018-02-20T00:41:53.470Z,92.85
2018-02-20T00:42:53.289Z,93.04
2018-02-20T00:43:53.236Z,92.29
2018-02-20T00:44:53.129Z,93.13
2018-02-20T00:45:53.062Z,93.04
2018-02-20T00:46:52.978Z,92.94
2018-02-20T00:47:52.899Z,93.42
2018-02-20T00:48:52.804Z,93.13
2018-02-20T00:49:52.728Z,93.42
2018-02-20T00:50:52.632Z,93.04
2018-02-20T00:51:52.582Z,93.61
2018-02-20T00:52:52.471Z,93.13
2018-02-20T00:53:52.393Z,93.51
2018-02-20T00:54:52.308Z,94.27
2018-02-20T00:55:52.226Z,94.18
2018-02-20T00:56:52.167Z,94.08
2018-02-20T00:57:52.068Z,94.18
2018-02-20T00:58:51.976Z,94.08
2018-02-20T00:59:51.887Z,94.46
2018-02-20T01:00:51.797Z,94.84
2018-02-20T01:01:51.797Z,94.74
2018-02-20T01:02:51.630Z,94.65
2018-02-20T01:03:51.552Z,95.12
2018-02-20T01:04:51.464Z,95.03
2018-02-20T01:05:51.390Z,94.46
2018-02-20T01:06:51.326Z,94.79
2018-02-20T01:07:51.221Z,94.89
2018-02-20T01:08:51.130Z,95.36
2018-02-20T01:09:51.067Z,95.74
2018-02-20T01:10:50.962Z,95.45
2018-02-20T01:11:50.905Z,95.45
2018-02-20T01:12:50.794Z,95.55
2018-02-20T01:13:50.752Z,95.12
2018-02-20T01:14:50.639Z,95.12
2018-02-20T01:15:50.550Z,95.55
2018-02-20T01:16:50.471Z,95.40
2018-02-20T01:17:50.412Z,95.50
2018-02-20T01:18:50.327Z,95.26
2018-02-20T01:19:50.218Z,95.07
2018-02-20T01:20:50.151Z,95.36
2018-02-20T01:21:50.054Z,95.74
2018-02-20T01:22:50.004Z,96.12
2018-02-20T01:23:49.894Z,96.16
2018-02-20T01:24:49.790Z,94.98
2018-02-20T01:25:49.738Z,95.17
2018-02-20T01:26:49.622Z,95.12
2018-02-20T01:27:49.573Z,94.65
2018-02-20T01:28:49.462Z,95.21
2018-02-20T01:29:49.399Z,95.50
2018-02-20T01:30:49.302Z,94.79
2018-02-20T01:31:49.224Z,95.17
2018-02-20T01:32:49.150Z,95.55
2018-02-20T01:33:49.051Z,94.89
2018-02-20T01:34:48.961Z,96.21
2018-02-20T01:35:48.887Z,96.02
2018-02-20T01:36:48.792Z,95.45
2018-02-20T01:37:48.737Z,95.07
2018-02-20T01:38:48.641Z,95.26
2018-02-20T01:39:48.549Z,95.50
2018-02-20T01:40:48.452Z,94.93
2018-02-20T01:41:48.385Z,94.98
2018-02-20T01:42:48.288Z,95.21
2018-02-20T01:43:48.235Z,94.56
2018-02-20T01:44:48.114Z,94.79
2018-02-20T01:45:48.052Z,94.93
2018-02-20T01:46:47.954Z,94.74
2018-02-20T01:47:47.881Z,94.51
2018-02-20T01:48:47.818Z,94.89
2018-02-20T01:49:47.719Z,95.36
2018-02-20T01:50:47.631Z,95.74
2018-02-20T01:51:47.611Z,96.12
2018-02-20T01:52:47.466Z,96.50
2018-02-20T01:53:47.410Z,96.88
2018-02-20T01:54:47.310Z,97.53
2018-02-20T01:55:47.220Z,97.25
2018-02-20T01:56:47.122Z,97.44
2018-02-20T01:57:47.049Z,97.53
2018-02-20T01:58:46.974Z,97.49
2018-02-20T01:59:46.881Z,97.58
2018-02-20T02:00:46.783Z,97.67
2018-02-20T02:01:46.710Z,98.14
2018-02-20T02:02:46.621Z,98.05
2018-02-20T02:03:46.564Z,97.77
2018-02-20T02:04:46.458Z,98.24
2018-02-20T02:05:46.396Z,98.43
2018-02-20T02:06:46.278Z,98.62
2018-02-20T02:07:46.206Z,98.52
2018-02-20T02:08:46.117Z,98.52
2018-02-20T02:09:46.058Z,98.43
2018-02-20T02:10:45.950Z,98.81
2018-02-20T02:11:45.877Z,98.62
2018-02-20T02:12:45.780Z,98.71
2018-02-20T02:13:45.708Z,98.71
2018-02-20T02:14:45.642Z,98.24
2018-02-20T02:15:45.554Z,98.52
2018-02-20T02:16:45.465Z,99.00
2018-02-20T02:17:45.382Z,98.71
2018-02-20T02:18:45.277Z,98.71
2018-02-20T02:19:45.224Z,98.62
2018-02-20T02:20:45.113Z,98.81
2018-02-20T02:21:45.162Z,99.00
2018-02-20T02:22:44.948Z,98.62
2018-02-20T02:23:44.878Z,98.33
2018-02-20T02:24:44.798Z,98.81
2018-02-20T02:25:44.723Z,98.81
2018-02-20T02:26:44.611Z,99.38
2018-02-20T02:27:44.540Z,99.00
2018-02-20T02:28:44.450Z,99.19
2018-02-20T02:29:44.371Z,99.47
2018-02-20T02:30:44.289Z,99.09
2018-02-20T02:31:44.210Z,99.66
2018-02-20T02:32:44.117Z,99.66
2018-02-20T02:33:44.034Z,99.66
2018-02-20T02:34:43.935Z,99.57
2018-02-20T02:35:43.883Z,99.57
2018-02-20T02:36:43.774Z,99.47
2018-02-20T02:37:43.701Z,99.57
2018-02-20T02:38:43.603Z,99.00
2018-02-20T02:39:43.529Z,99.24
2018-02-20T02:40:43.460Z,98.67
2018-02-20T02:41:43.380Z,98.29
2018-02-20T02:42:43.275Z,97.72
2018-02-20T02:43:43.201Z,97.34
2018-02-20T02:44:43.098Z,97.34
2018-02-20T02:45:43.044Z,97.53
2018-02-20T02:46:42.934Z,97.63
2018-02-20T02:47:42.880Z,98.05
2018-02-20T02:48:42.762Z,98.05
2018-02-20T02:49:42.692Z,98.52
2018-02-20T02:50:42.616Z,98.43
2018-02-20T02:51:42.595Z,98.71
2018-02-20T02:52:42.441Z,98.81
2018-02-20T02:53:42.355Z,98.81
2018-02-20T02:54:42.267Z,98.71
2018-02-20T02:55:42.184Z,98.52
2018-02-20T02:56:42.104Z,98.43
2018-02-20T02:57:42.026Z,98.52
2018-02-20T02:58:41.924Z,98.43
2018-02-20T02:59:41.848Z,98.24
2018-02-20T03:00:41.764Z,98.24
2018-02-20T03:01:41.714Z,98.05
2018-02-20T03:02:41.590Z,98.14
2018-02-20T03:03:41.520Z,98.43
2018-02-20T03:04:41.423Z,98.52
2018-02-20T03:05:41.350Z,98.67
2018-02-20T03:06:41.271Z,98.81
2018-02-20T03:07:41.204Z,97.86
2018-02-20T03:08:41.088Z,98.14
2018-02-20T03:09:41.016Z,97.86
2018-02-20T03:10:40.924Z,98.05
2018-02-20T03:11:40.906Z,97.67
2018-02-20T03:12:40.783Z,97.77
2018-02-20T03:13:40.675Z,98.14
2018-02-20T03:14:40.682Z,98.05
2018-02-20T03:15:40.514Z,98.24
2018-02-20T03:16:40.427Z,98.14
2018-02-20T03:17:40.344Z,98.20
2018-02-20T03:18:40.264Z,98.20
2018-02-20T03:19:40.176Z,97.72
2018-02-20T03:20:40.081Z,97.67
2018-02-20T03:21:40.013Z,97.77
2018-02-20T03:22:39.931Z,98.24
2018-02-20T03:23:39.840Z,98.14
2018-02-20T03:24:39.750Z,98.24
2018-02-20T03:25:39.687Z,98.24
2018-02-20T03:26:39.578Z,98.24
2018-02-20T03:27:39.526Z,97.96
2018-02-20T03:28:39.415Z,98.43
2018-02-20T03:29:39.354Z,98.24
2018-02-20T03:30:39.245Z,98.43
2018-02-20T03:31:39.205Z,98.52
2018-02-20T03:32:39.098Z,98.90
2018-02-20T03:33:39.002Z,98.62
2018-02-20T03:34:38.905Z,98.24
2018-02-20T03:35:38.827Z,98.24
2018-02-20T03:36:38.736Z,98.24
2018-02-20T03:37:38.684Z,98.52
2018-02-20T03:38:38.566Z,98.43
2018-02-20T03:39:38.505Z,98.52
2018-02-20T03:40:38.410Z,98.62
2018-02-20T03:41:38.320Z,98.62
2018-02-20T03:42:38.259Z,99.00
2018-02-20T03:43:38.165Z,98.05
2018-02-20T03:44:38.688Z,97.86
2018-02-20T03:45:38.006Z,98.33
2018-02-20T03:46:37.903Z,97.86
2018-02-20T03:47:37.827Z,98.05
2018-02-20T03:48:37.751Z,98.14
2018-02-20T03:49:37.658Z,98.14
2018-02-20T03:50:37.583Z,97.96
2018-02-20T03:51:37.492Z,98.24
2018-02-20T03:52:37.401Z,98.05
2018-02-20T03:53:37.342Z,98.14
2018-02-20T03:54:37.235Z,98.43
2018-02-20T03:55:37.145Z,98.52
2018-02-20T03:56:37.073Z,99.19
2018-02-20T03:57:36.992Z,99.19
2018-02-20T03:58:36.903Z,99.28
2018-02-20T03:59:36.820Z,98.24
2018-02-20T04:00:36.735Z,99.19
2018-02-20T04:01:36.662Z,98.81
2018-02-20T04:02:36.555Z,98.81
2018-02-20T04:03:36.502Z,97.86
2018-02-20T04:04:36.502Z,98.14
2018-02-20T04:05:36.312Z,97.96
2018-02-20T04:06:36.220Z,98.24
2018-02-20T04:07:36.135Z,98.14
2018-02-20T04:08:36.044Z,98.05
2018-02-20T04:09:36.018Z,97.91
2018-02-20T04:10:35.881Z,97.34
2018-02-20T04:11:35.812Z,97.25
2018-02-20T04:12:35.714Z,96.50
2018-02-20T04:13:35.640Z,96.78
2018-02-20T04:14:35.569Z,96.78
2018-02-20T04:15:35.485Z,96.59
2018-02-20T04:16:35.379Z,96.69
2018-02-20T04:17:35.313Z,96.97
2018-02-20T04:18:35.220Z,96.78
2018-02-20T04:19:35.159Z,96.78
2018-02-20T04:20:35.041Z,97.25
2018-02-20T04:21:34.974Z,96.50
2018-02-20T04:22:34.884Z,97.72
2018-02-20T04:23:34.802Z,97.53
2018-02-20T04:24:34.732Z,97.06
2018-02-20T04:25:34.631Z,97.67
2018-02-20T04:26:34.544Z,97.39
2018-02-20T04:27:34.466Z,97.30
2018-02-20T04:28:34.383Z,97.67
2018-02-20T04:29:34.327Z,98.14
2018-02-20T04:30:34.252Z,98.24
2018-02-20T04:31:34.127Z,98.43
2018-02-20T04:32:34.038Z,98.71
2018-02-20T04:33:33.972Z,98.71
2018-02-20T04:34:33.888Z,98.62
2018-02-20T04:35:33.819Z,98.81
2018-02-20T04:36:33.710Z,99.19
2018-02-20T04:37:33.645Z,99.09
2018-02-20T04:38:33.531Z,99.38
2018-02-20T04:39:33.459Z,98.62
2018-02-20T04:40:33.386Z,99.47
2018-02-20T04:41:33.292Z,99.19
2018-02-20T04:42:33.195Z,98.24
2018-02-20T04:43:33.123Z,98.52
2018-02-20T04:44:33.031Z,98.62
2018-02-20T04:45:32.984Z,98.52
2018-02-20T04:46:32.864Z,98.14
2018-02-20T04:47:32.793Z,97.86
2018-02-20T04:48:32.699Z,98.43
2018-02-20T04:49:32.623Z,98.81
2018-02-20T04:50:32.540Z,98.81
2018-02-20T04:51:32.497Z,99.19
2018-02-20T04:52:32.357Z,99.28
2018-02-20T04:53:32.288Z,99.19
2018-02-20T04:54:32.240Z,98.90
2018-02-20T04:55:32.123Z,99.66
2018-02-20T04:56:32.041Z,99.66
2018-02-20T04:57:31.948Z,99.42
2018-02-20T04:58:31.864Z,99.52
2018-02-20T04:59:31.783Z,99.99
2018-02-20T05:00:31.692Z,99.99
2018-02-20T05:01:31.644Z,99.99
2018-02-20T05:02:31.517Z,99.99
2018-02-20T05:03:31.450Z,99.99
2018-02-20T05:04:31.456Z,99.99
2018-02-20T05:05:31.282Z,99.99
2018-02-20T05:06:31.195Z,99.99
2018-02-20T05:07:31.207Z,99.99
2018-02-20T05:08:31.011Z,99.57
2018-02-20T05:09:30.949Z,99.09
2018-02-20T05:10:30.846Z,98.62
2018-02-20T05:11:30.794Z,98.62
2018-02-20T05:12:30.704Z,98.81
2018-02-20T05:13:30.610Z,98.71
2018-02-20T05:14:30.509Z,98.52
2018-02-20T05:15:30.437Z,98.43
2018-02-20T05:16:30.358Z,97.49
2018-02-20T05:17:30.280Z,97.30
2018-02-20T05:18:30.170Z,97.86
2018-02-20T05:19:30.092Z,98.71
2018-02-20T05:20:29.999Z,98.90
2018-02-20T05:21:29.925Z,99.47
2018-02-20T05:22:29.953Z,99.66
2018-02-20T05:23:29.808Z,99.80
2018-02-20T05:24:29.667Z,99.99
2018-02-20T05:25:29.616Z,99.99
2018-02-20T05:26:29.498Z,99.99
2018-02-20T05:27:29.580Z,99.99
2018-02-20T05:28:29.363Z,99.99
2018-02-20T05:29:29.336Z,99.99
2018-02-20T05:30:29.163Z,99.99
2018-02-20T05:31:29.157Z,99.99
2018-02-20T05:32:29.019Z,99.99
2018-02-20T05:33:28.955Z,99.99
2018-02-20T05:34:28.822Z,99.99
2018-02-20T05:35:28.773Z,99.99
2018-02-20T05:36:28.654Z,99.99
2018-02-20T05:37:28.699Z,99.99
2018-02-20T05:38:28.476Z,99.99
2018-02-20T05:39:28.483Z,99.99
2018-02-20T05:40:28.315Z,99.99
2018-02-20T05:41:28.293Z,99.99
2018-02-20T05:42:28.164Z,99.99
2018-02-20T05:43:28.131Z,99.99
2018-02-20T05:44:28.004Z,99.99
2018-02-20T05:45:27.898Z,99.38
2018-02-20T05:46:27.806Z,99.47
2018-02-20T05:47:27.728Z,99.09
2018-02-20T05:48:27.665Z,99.00
2018-02-20T05:49:27.564Z,99.00
2018-02-20T05:50:27.478Z,98.90
2018-02-20T05:51:27.439Z,99.19
2018-02-20T05:52:27.299Z,99.38
2018-02-20T05:53:27.283Z,99.99
2018-02-20T05:54:27.149Z,99.99
2018-02-20T05:55:27.064Z,99.99
2018-02-20T05:56:26.967Z,99.99
2018-02-20T05:57:26.903Z,99.99
2018-02-20T05:58:26.792Z,99.99
2018-02-20T05:59:26.757Z,99.99
2018-02-20T06:00:26.631Z,99.99
2018-02-20T06:01:26.554Z,99.99
2018-02-20T06:02:26.554Z,99.99
2018-02-20T06:03:26.389Z,99.99
2018-02-20T06:04:26.301Z,99.99
2018-02-20T06:05:26.214Z,99.99
2018-02-20T06:06:26.127Z,99.99
2018-02-20T06:07:26.053Z,99.99
2018-02-20T06:08:25.958Z,99.99
2018-02-20T06:09:26.902Z,99.99
2018-02-20T06:10:25.785Z,99.99
2018-02-20T06:11:25.731Z,99.99
2018-02-20T06:12:25.622Z,99.99
2018-02-20T06:13:25.544Z,99.99
2018-02-20T06:14:25.501Z,99.99
2018-02-20T06:15:25.379Z,99.99
2018-02-20T06:16:25.289Z,99.99
2018-02-20T06:17:25.196Z,99.99
2018-02-20T06:18:25.117Z,99.99
2018-02-20T06:19:25.070Z,99.99
2018-02-20T06:20:24.950Z,99.99
2018-02-20T06:21:24.876Z,99.99
2018-02-20T06:22:24.800Z,99.99
2018-02-20T06:23:24.702Z,99.99
2018-02-20T06:24:24.605Z,99.99
2018-02-20T06:25:24.545Z,99.99
2018-02-20T06:26:24.434Z,99.99
2018-02-20T06:27:24.386Z,99.99
2018-02-20T06:28:24.266Z,99.99
2018-02-20T06:29:24.196Z,99.99
2018-02-20T06:30:24.108Z,99.99
2018-02-20T06:31:24.022Z,99.99
2018-02-20T06:32:23.922Z,99.99
2018-02-20T06:33:23.852Z,99.99
2018-02-20T06:34:23.751Z,99.99
2018-02-20T06:35:23.707Z,99.99
2018-02-20T06:36:23.601Z,99.99
2018-02-20T06:37:23.512Z,99.99
2018-02-20T06:38:23.420Z,99.99
2018-02-20T06:39:23.356Z,99.99
2018-02-20T06:40:23.263Z,99.99
2018-02-20T06:41:23.198Z,99.99
2018-02-20T06:42:23.084Z,99.99
2018-02-20T06:43:23.007Z,99.99
2018-02-20T06:44:23.017Z,99.99
2018-02-20T06:45:22.860Z,99.99
2018-02-20T06:46:22.743Z,99.99
2018-02-20T06:47:22.666Z,99.99
2018-02-20T06:48:22.573Z,99.99
2018-02-20T06:49:22.494Z,99.99
2018-02-20T06:50:22.425Z,99.99
2018-02-20T06:51:22.329Z,99.99
2018-02-20T06:52:22.252Z,99.99
2018-02-20T06:55:04.126Z,99.99
2018-02-20T06:56:04.057Z,99.99
2018-02-20T06:57:03.978Z,99.99
2018-02-20T06:58:03.881Z,99.99
2018-02-20T06:59:03.806Z,99.99
2018-02-20T07:00:03.716Z,99.99
2018-02-20T07:01:03.644Z,99.99
2018-02-20T07:02:03.568Z,99.99
2018-02-20T07:03:03.458Z,99.99
2018-02-20T07:04:03.379Z,99.99
2018-02-20T07:05:04.202Z,99.99
2018-02-20T07:06:03.202Z,99.99
2018-02-20T07:07:03.141Z,99.99
2018-02-20T07:08:03.095Z,99.99
2018-02-20T07:09:02.947Z,99.89
2018-02-20T07:10:02.868Z,99.99
2018-02-20T07:11:02.804Z,99.99
2018-02-20T07:12:02.723Z,99.99
2018-02-20T07:13:02.608Z,99.99
2018-02-20T07:14:02.530Z,99.99
2018-02-20T07:15:02.440Z,99.99
2018-02-20T07:16:02.357Z,99.99
2018-02-20T07:17:02.306Z,99.99
2018-02-20T07:18:02.219Z,99.89
2018-02-20T07:19:02.116Z,99.99
2018-02-20T07:20:02.025Z,99.99
2018-02-20T07:21:01.928Z,99.99
2018-02-20T07:22:01.903Z,99.57
2018-02-20T07:23:01.755Z,99.47
2018-02-20T07:24:01.702Z,99.66
2018-02-20T07:25:01.598Z,99.47
2018-02-20T07:26:01.531Z,99.66
2018-02-20T07:27:01.428Z,99.57
2018-02-20T07:28:01.417Z,99.57
2018-02-20T07:29:01.249Z,98.71
2018-02-20T07:30:01.195Z,99.28
2018-02-20T07:31:01.082Z,99.47
2018-02-20T07:32:01.008Z,98.81
2018-02-20T07:33:00.916Z,98.71
2018-02-20T07:34:00.837Z,98.96
2018-02-20T07:35:00.847Z,98.10
2018-02-20T07:36:00.692Z,97.72
2018-02-20T07:37:00.602Z,96.59
2018-02-20T07:38:00.607Z,96.21
2018-02-20T07:39:00.410Z,96.31
2018-02-20T07:40:00.371Z,95.17
2018-02-20T07:41:00.246Z,95.64
2018-02-20T07:42:00.162Z,95.36
2018-02-20T07:43:00.091Z,94.89
2018-02-20T07:44:00.007Z,95.64
2018-02-20T07:44:59.922Z,95.26
2018-02-20T07:45:59.838Z,95.45
2018-02-20T07:46:59.744Z,95.64
2018-02-20T07:47:59.705Z,95.26
2018-02-20T07:48:59.566Z,95.45
2018-02-20T07:49:59.516Z,94.79
2018-02-20T07:50:59.413Z,95.17
2018-02-20T07:51:59.341Z,95.17
2018-02-20T07:52:59.232Z,95.45
2018-02-20T07:53:59.180Z,95.36
2018-02-20T07:54:59.077Z,95.17
2018-02-20T07:55:59.037Z,95.64
2018-02-20T07:56:58.908Z,95.17
2018-02-20T07:57:58.824Z,95.64
2018-02-20T07:58:58.729Z,95.64
2018-02-20T07:59:58.681Z,94.79
2018-02-20T08:00:58.576Z,94.60
2018-02-20T08:01:58.516Z,95.17
2018-02-20T08:02:58.412Z,94.18
2018-02-20T08:03:58.327Z,93.37
2018-02-20T08:04:58.228Z,91.29
2018-02-20T08:05:58.171Z,89.72
2018-02-20T08:06:58.067Z,88.11
2018-02-20T08:07:57.990Z,86.88
2018-02-20T08:08:57.897Z,86.26
2018-02-20T08:09:57.852Z,85.03
2018-02-20T08:10:57.763Z,83.84
2018-02-20T08:11:57.718Z,82.27
2018-02-20T08:12:57.562Z,80.46
2018-02-20T08:13:57.491Z,79.95
2018-02-20T08:14:57.528Z,80.43
2018-02-20T08:15:57.345Z,80.52
2018-02-20T08:16:57.276Z,80.62
2018-02-20T08:17:57.159Z,80.08
2018-02-20T08:18:57.073Z,79.71
2018-02-20T08:19:56.997Z,79.61
2018-02-20T08:20:56.931Z,79.42
2018-02-20T08:21:56.840Z,79.80
2018-02-20T08:22:56.761Z,79.66
2018-02-20T08:23:56.668Z,79.61
2018-02-20T08:24:56.603Z,78.85
2018-02-20T08:25:56.533Z,79.23
2018-02-20T08:26:56.418Z,79.61
2018-02-20T08:27:56.470Z,79.42
2018-02-20T08:28:56.255Z,78.95
2018-02-20T08:29:56.205Z,78.47
2018-02-20T08:30:56.113Z,78.47
2018-02-20T08:31:56.014Z,77.47
2018-02-20T08:32:55.925Z,76.61
2018-02-20T08:33:55.855Z,76.61
2018-02-20T08:34:55.780Z,74.56
2018-02-20T08:35:55.711Z,73.99
2018-02-20T08:36:55.616Z,72.60
2018-02-20T08:37:55.557Z,71.37
2018-02-20T08:38:55.442Z,71.46
2018-02-20T08:39:55.379Z,70.54
2018-02-20T08:40:55.281Z,69.79
2018-02-20T08:41:55.208Z,69.31
2018-02-20T08:42:55.157Z,68.46
2018-02-20T08:43:55.050Z,68.74
2018-02-20T08:44:54.963Z,67.85
2018-02-20T08:45:54.890Z,68.71
2018-02-20T08:46:54.800Z,70.79
2018-02-20T08:47:54.749Z,70.54
2018-02-20T08:48:54.654Z,68.84
2018-02-20T08:49:54.567Z,68.71
2018-02-20T08:50:54.479Z,69.94
2018-02-20T08:51:54.409Z,70.32
2018-02-20T08:52:54.322Z,70.79
2018-02-20T08:53:54.264Z,70.54
2018-02-20T08:54:54.164Z,67.79
2018-02-20T08:55:54.100Z,69.41
2018-02-20T08:56:53.992Z,68.61
2018-02-20T08:57:53.932Z,69.66
2018-02-20T08:58:53.903Z,68.55
2018-02-20T08:59:53.765Z,67.25
2018-02-20T09:00:53.676Z,66.14
2018-02-20T09:01:53.617Z,65.45
2018-02-20T09:02:53.535Z,65.35
2018-02-20T09:03:53.580Z,65.25
2018-02-20T09:04:53.391Z,65.73
2018-02-20T09:05:53.458Z,66.30
2018-02-20T09:06:53.207Z,65.58
2018-02-20T09:07:53.202Z,66.08
2018-02-20T09:08:53.082Z,66.59
2018-02-20T09:09:53.040Z,65.29
2018-02-20T09:10:52.899Z,64.05
2018-02-20T09:11:52.919Z,64.43
2018-02-20T09:12:52.736Z,63.60
2018-02-20T09:13:52.724Z,62.75
2018-02-20T09:14:52.596Z,61.25
2018-02-20T09:15:52.530Z,60.97
2018-02-20T09:16:52.421Z,61.04
2018-02-20T09:17:52.446Z,61.99
2018-02-20T09:18:52.265Z,61.61
2018-02-20T09:19:52.303Z,62.34
2018-02-20T09:20:52.099Z,63.26
2018-02-20T09:21:52.108Z,63.45
2018-02-20T09:22:51.942Z,65.73
2018-02-20T09:23:51.982Z,64.78
2018-02-20T09:24:51.808Z,63.76
2018-02-20T09:25:51.786Z,63.51
2018-02-20T09:26:51.711Z,66.36
2018-02-20T09:27:51.618Z,66.11
2018-02-20T09:28:51.482Z,64.97
2018-02-20T09:29:52.231Z,63.76
2018-02-20T09:30:51.313Z,63.39
2018-02-20T09:31:51.405Z,61.80
2018-02-20T09:32:51.160Z,61.55
2018-02-20T09:33:51.104Z,62.75
2018-02-20T09:34:51.038Z,63.89
2018-02-20T09:35:51.034Z,64.84
2018-02-20T09:36:50.843Z,65.16
2018-02-20T09:37:50.856Z,63.76
2018-02-20T09:38:50.689Z,63.60
2018-02-20T09:39:50.675Z,62.94
2018-02-20T09:40:50.556Z,61.54
2018-02-20T09:41:50.471Z,60.85
2018-02-20T09:42:50.371Z,60.40
2018-02-20T09:43:50.365Z,59.09
2018-02-20T09:44:50.221Z,59.00
2018-02-20T09:45:50.206Z,59.28
2018-02-20T09:46:50.076Z,60.49
2018-02-20T09:47:50.076Z,59.74
2018-02-20T09:48:49.908Z,59.57
2018-02-20T09:49:49.908Z,59.09
2018-02-20T09:50:49.770Z,58.87
2018-02-20T09:51:49.820Z,59.09
2018-02-20T09:52:49.593Z,58.43
2018-02-20T09:53:49.611Z,57.86
2018-02-20T09:54:49.454Z,57.95
2018-02-20T09:55:49.447Z,57.89
2018-02-20T09:56:49.311Z,57.67
2018-02-20T09:57:49.327Z,57.95
2018-02-20T09:58:49.125Z,57.92
2018-02-20T09:59:49.135Z,58.33
2018-02-20T10:00:48.975Z,57.57
2018-02-20T10:01:48.973Z,58.04
2018-02-20T10:02:48.878Z,57.86
2018-02-20T10:03:48.868Z,57.86
2018-02-20T10:04:48.673Z,58.14
2018-02-20T10:05:49.237Z,56.65
2018-02-20T10:06:48.537Z,56.46
2018-02-20T10:07:48.482Z,56.62
2018-02-20T10:08:48.367Z,57.48
2018-02-20T10:11:30.695Z,57.38
2018-02-20T10:12:30.728Z,57.48
2018-02-20T10:13:30.503Z,57.67
2018-02-20T10:14:30.596Z,57.95
2018-02-20T10:15:30.355Z,57.41
2018-02-20T10:16:30.421Z,55.62
2018-02-20T10:17:30.230Z,55.82
2018-02-20T10:18:30.211Z,54.99
2018-02-20T10:19:30.041Z,54.57
2018-02-20T10:20:30.029Z,54.57
2018-02-20T10:21:29.894Z,54.36
2018-02-20T10:22:29.873Z,55.21
2018-02-20T10:23:29.761Z,54.19
2018-02-20T10:24:29.754Z,54.64
2018-02-20T10:25:29.590Z,56.17
2018-02-20T10:26:29.561Z,56.26
2018-02-20T10:27:29.432Z,55.38
2018-02-20T10:28:29.496Z,56.90
2018-02-20T10:29:29.283Z,57.76
2018-02-20T10:30:29.693Z,55.88
2018-02-20T10:31:29.145Z,56.04
2018-02-20T10:34:11.181Z,56.81
2018-02-20T10:35:11.184Z,56.62
2018-02-20T10:36:11.019Z,55.85
2018-02-20T10:37:10.997Z,55.28
2018-02-20T10:38:10.868Z,54.83
2018-02-20T10:39:10.924Z,54.67
2018-02-20T10:40:10.732Z,54.00
2018-02-20T10:41:10.718Z,54.10
2018-02-20T10:42:10.559Z,54.07
2018-02-20T10:43:10.521Z,53.97
2018-02-20T10:44:10.432Z,55.21
2018-02-20T10:45:10.425Z,55.88
2018-02-20T10:46:10.261Z,55.91
2018-02-20T10:47:10.235Z,55.91
2018-02-20T10:48:10.172Z,54.57
2018-02-20T10:49:10.083Z,54.07
2018-02-20T10:50:09.946Z,54.26
2018-02-20T10:51:09.990Z,53.27
2018-02-20T10:52:09.811Z,50.90
2018-02-20T10:53:09.758Z,50.14
2018-02-20T10:54:09.671Z,50.16
2018-02-20T10:55:09.669Z,50.21
2018-02-20T10:56:09.493Z,50.78
2018-02-20T10:57:09.483Z,49.47
2018-02-20T10:58:09.350Z,51.62
2018-02-20T10:59:09.477Z,53.97
2018-02-20T11:00:09.220Z,56.04
2018-02-20T11:01:09.209Z,56.17
2018-02-20T11:02:09.040Z,54.70
2018-02-20T11:03:09.004Z,52.72
2018-02-20T11:04:08.930Z,51.29
2018-02-20T11:05:08.972Z,50.98
2018-02-20T11:06:08.740Z,50.59
2018-02-20T11:07:08.800Z,51.23
2018-02-20T11:08:08.577Z,51.88
2018-02-20T11:09:08.648Z,53.21
2018-02-20T11:10:08.460Z,52.83
2018-02-20T11:11:08.454Z,52.64
2018-02-20T11:12:08.292Z,54.33
2018-02-20T11:13:08.267Z,54.52
2018-02-20T11:14:08.132Z,54.17
2018-02-20T11:15:08.167Z,53.50
2018-02-20T11:16:08.014Z,53.50
2018-02-20T11:17:07.975Z,54.04
2018-02-20T11:18:07.827Z,55.21
2018-02-20T11:19:07.780Z,54.19
2018-02-20T11:20:07.674Z,54.00
2018-02-20T11:21:07.736Z,52.98
2018-02-20T11:22:07.543Z,51.26
2018-02-20T11:23:07.501Z,51.52
2018-02-20T11:24:07.380Z,51.45
2018-02-20T11:25:07.424Z,51.43
2018-02-20T11:26:07.244Z,52.22
2018-02-20T11:27:07.218Z,50.31
2018-02-20T11:28:07.081Z,50.76
2018-02-20T11:29:07.031Z,52.36
2018-02-20T11:30:07.023Z,53.69
2018-02-20T11:31:06.995Z,53.31
2018-02-20T11:32:06.766Z,54.04
2018-02-20T11:33:06.861Z,53.95
2018-02-20T11:34:06.617Z,54.71
2018-02-20T11:35:06.667Z,54.59
2018-02-20T11:36:06.609Z,54.04
2018-02-20T11:37:06.469Z,54.74
2018-02-20T11:38:06.321Z,54.21
2018-02-20T11:39:06.289Z,55.63
2018-02-20T11:40:06.174Z,55.76
2018-02-20T11:41:06.215Z,55.76
2018-02-20T11:42:06.005Z,55.16
2018-02-20T11:43:06.000Z,55.44
2018-02-20T11:44:05.869Z,55.21
2018-02-20T11:45:05.906Z,54.07
2018-02-20T11:46:05.733Z,53.59
2018-02-20T11:47:05.717Z,54.43
2018-02-20T11:48:05.545Z,53.85
2018-02-20T11:49:05.575Z,54.61
2018-02-20T11:50:05.634Z,55.47
2018-02-20T11:51:05.598Z,56.75
2018-02-20T11:52:05.272Z,58.72
2018-02-20T11:53:05.242Z,61.10
2018-02-20T11:54:05.113Z,61.61
2018-02-20T11:55:05.056Z,60.21
2018-02-20T11:56:04.936Z,58.52
2018-02-20T11:57:05.219Z,57.19
2018-02-20T11:58:04.817Z,58.11
2018-02-20T11:59:04.768Z,58.43
2018-02-20T12:00:04.633Z,56.84
2018-02-20T12:01:04.615Z,56.24
2018-02-20T12:02:04.506Z,55.69
2018-02-20T12:03:04.579Z,54.96
2018-02-20T12:04:04.339Z,54.55
2018-02-20T12:05:04.298Z,55.88
2018-02-20T12:06:04.188Z,55.82
2018-02-20T12:07:04.249Z,54.38
2018-02-20T12:08:04.032Z,53.81
2018-02-20T12:09:04.054Z,53.91
2018-02-20T12:10:03.870Z,54.32
2018-02-20T12:11:03.858Z,54.22
2018-02-20T12:12:03.782Z,53.86
2018-02-20T12:13:03.745Z,53.29
2018-02-20T12:14:03.589Z,52.46
2018-02-20T12:16:45.710Z,51.64
2018-02-20T12:17:45.759Z,53.24
2018-02-20T12:18:45.581Z,53.85
2018-02-20T12:19:45.551Z,55.63
2018-02-20T12:20:45.406Z,57.16
2018-02-20T12:21:45.554Z,57.45
2018-02-20T12:22:45.391Z,58.28
2018-02-20T12:23:45.407Z,59.01
2018-02-20T12:24:45.297Z,60.24
2018-02-20T12:25:45.224Z,60.24
2018-02-20T12:26:45.203Z,60.27
2018-02-20T12:27:45.293Z,59.70
2018-02-20T12:28:45.057Z,59.03
2018-02-20T12:29:44.987Z,58.97
2018-02-20T12:30:44.824Z,58.81
2018-02-20T12:31:44.825Z,59.80
2018-02-20T12:32:44.611Z,59.70
2018-02-20T12:33:44.744Z,60.72
2018-02-20T12:34:44.410Z,60.82
2018-02-20T12:35:44.543Z,61.38
2018-02-20T12:36:44.344Z,61.26
2018-02-20T12:37:44.426Z,61.71
2018-02-20T12:38:44.151Z,62.12
2018-02-20T12:39:44.136Z,62.75
2018-02-20T12:40:44.013Z,63.32
2018-02-20T12:41:44.028Z,63.60
2018-02-20T12:42:43.846Z,64.37
2018-02-20T12:43:44.005Z,64.37
2018-02-20T12:44:43.731Z,63.60
2018-02-20T12:47:37.348Z,63.32
2018-02-20T12:48:37.507Z,64.40
2018-02-20T12:49:37.209Z,64.31
2018-02-20T12:50:37.270Z,64.78
2018-02-20T12:51:36.998Z,64.78
2018-02-20T12:52:37.021Z,64.46
2018-02-20T12:53:36.873Z,64.65
2018-02-20T12:54:36.947Z,65.70
2018-02-20T12:55:36.749Z,66.27
2018-02-20T12:56:36.670Z,66.49
2018-02-20T12:57:36.630Z,65.16
2018-02-20T12:58:36.595Z,64.97
2018-02-20T12:59:36.425Z,64.59
2018-02-20T13:00:36.497Z,64.46